createdAt,value
2023-03-27T00:01:58.450Z,94839.41
2023-03-27T00:04:01.283Z,94831.91
2023-03-27T00:06:06.914Z,94828.75
2023-03-27T00:08:10.337Z,94849.50
2023-03-27T00:10:13.216Z,94861.28
2023-03-27T00:12:15.968Z,94844.00
2023-03-27T00:14:18.978Z,94861.91
2023-03-27T00:16:25.191Z,94863.13
2023-03-27T00:18:29.661Z,94868.78
2023-03-27T00:20:37.177Z,94869.09
2023-03-27T00:22:40.933Z,94881.78
2023-03-27T00:24:43.654Z,94868.78
2023-03-27T00:26:46.443Z,94890.81
2023-03-27T00:28:49.511Z,94902.03
2023-03-27T00:30:52.644Z,94898.22
2023-03-27T00:32:57.150Z,94910.81
2023-03-27T00:34:59.963Z,94914.28
2023-03-27T00:37:04.698Z,94922.44
2023-03-27T00:39:07.440Z,94915.59
2023-03-27T00:41:10.423Z,94923.72
2023-03-27T00:43:21.439Z,94924.16
2023-03-27T00:45:28.746Z,94857.16
2023-03-27T00:47:34.184Z,94809.00
2023-03-27T00:49:39.470Z,94917.31
2023-03-27T00:51:46.679Z,94922.41
2023-03-27T00:53:50.522Z,94934.44
2023-03-27T00:55:57.593Z,94935.34
2023-03-27T00:58:04.589Z,94935.44
2023-03-27T01:00:14.317Z,94938.38
2023-03-27T01:02:18.928Z,94931.63
2023-03-27T01:04:23.201Z,94956.81
2023-03-27T01:06:28.431Z,94934.19
2023-03-27T01:08:34.332Z,94929.91
2023-03-27T01:10:51.737Z,94942.28
2023-03-27T01:13:01.109Z,94917.66
2023-03-27T01:15:26.450Z,94954.84
2023-03-27T01:17:45.543Z,94965.34
2023-03-27T01:20:09.775Z,94962.78
2023-03-27T01:22:42.162Z,94962.03
2023-03-27T01:25:21.524Z,94968.84
2023-03-27T01:27:51.913Z,94959.16
2023-03-27T01:30:13.948Z,94957.44
2023-03-27T01:32:55.423Z,94975.44
2023-03-27T01:35:29.368Z,94972.34
2023-03-27T01:38:00.694Z,94980.81
2023-03-27T01:40:08.060Z,94997.34
2023-03-27T01:42:19.382Z,94995.13
2023-03-27T01:44:43.334Z,94994.56
2023-03-27T01:46:53.098Z,95007.16
2023-03-27T01:48:58.935Z,94978.16
2023-03-27T01:51:04.894Z,95009.94
2023-03-27T01:53:12.878Z,95012.47
2023-03-27T01:55:20.064Z,95020.69
2023-03-27T01:57:27.848Z,95045.28
2023-03-27T01:59:34.325Z,94996.75
2023-03-27T02:01:40.643Z,95040.78
2023-03-27T02:03:47.393Z,94983.34
2023-03-27T02:05:53.568Z,95040.88
2023-03-27T02:08:00.447Z,95044.13
2023-03-27T02:10:09.155Z,95046.09
2023-03-27T02:12:21.623Z,95065.19
2023-03-27T02:14:29.522Z,95055.81
2023-03-27T02:16:36.651Z,95064.69
2023-03-27T02:18:47.503Z,95070.38
2023-03-27T02:20:50.920Z,95072.22
2023-03-27T02:22:53.625Z,95079.34
2023-03-27T02:24:56.550Z,95076.56
2023-03-27T02:27:04.121Z,95090.09
2023-03-27T02:29:22.748Z,95095.34
2023-03-27T02:31:39.184Z,95099.72
2023-03-27T02:33:57.902Z,95106.38
2023-03-27T02:36:14.195Z,95107.91
2023-03-27T02:38:28.644Z,95106.88
2023-03-27T02:40:46.263Z,95069.44
2023-03-27T02:43:19.975Z,95110.03
2023-03-27T02:45:29.893Z,95123.13
2023-03-27T02:47:38.851Z,95119.84
2023-03-27T02:49:45.787Z,95130.75
2023-03-27T02:51:53.274Z,95113.31
2023-03-27T02:54:00.237Z,95111.09
2023-03-27T02:56:08.927Z,95009.00
2023-03-27T02:58:16.401Z,95151.34
2023-03-27T03:00:37.450Z,95159.75
2023-03-27T03:03:05.605Z,95160.59
2023-03-27T03:05:17.348Z,95157.28
2023-03-27T03:07:20.144Z,95168.84
2023-03-27T03:09:23.441Z,95151.28
2023-03-27T03:11:27.620Z,95168.69
2023-03-27T03:13:30.499Z,95181.34
2023-03-27T03:15:34.638Z,95184.13
2023-03-27T03:17:38.726Z,95172.44
2023-03-27T03:19:41.572Z,95199.66
2023-03-27T03:21:44.527Z,95196.13
2023-03-27T03:23:57.505Z,95183.38
2023-03-27T03:26:03.085Z,95215.34
2023-03-27T03:28:18.173Z,95223.31
2023-03-27T03:30:20.949Z,95235.59
2023-03-27T03:32:36.737Z,95234.88
2023-03-27T03:34:46.567Z,95245.91
2023-03-27T03:36:50.915Z,95240.44
2023-03-27T03:38:58.444Z,95267.00
2023-03-27T03:41:01.430Z,95238.91
2023-03-27T03:43:05.955Z,95199.28
2023-03-27T03:45:10.075Z,95249.63
2023-03-27T03:47:13.200Z,95268.22
2023-03-27T03:49:18.065Z,95270.06
2023-03-27T03:51:21.070Z,95286.66
2023-03-27T03:53:23.968Z,95294.50
2023-03-27T03:55:26.763Z,95288.66
2023-03-27T03:57:29.637Z,95297.19
2023-03-27T03:59:40.430Z,95311.91
2023-03-27T04:02:03.990Z,95311.75
2023-03-27T04:04:08.354Z,95306.88
2023-03-27T04:06:32.569Z,95314.81
2023-03-27T04:08:36.665Z,95325.41
2023-03-27T04:10:41.373Z,95334.44
2023-03-27T04:13:02.320Z,95341.22
2023-03-27T04:15:12.636Z,95359.75
2023-03-27T04:17:34.315Z,95363.84
2023-03-27T04:19:38.646Z,95203.31
2023-03-27T04:21:43.329Z,95378.53
2023-03-27T04:23:48.120Z,95375.28
2023-03-27T04:25:59.976Z,95382.66
2023-03-27T04:28:16.774Z,95369.72
2023-03-27T04:30:24.800Z,95389.91
2023-03-27T04:32:46.194Z,95402.34
2023-03-27T04:35:08.153Z,95391.94
2023-03-27T04:37:24.147Z,95404.38
2023-03-27T04:39:42.922Z,95418.00
2023-03-27T04:41:49.159Z,95388.50
2023-03-27T04:43:51.976Z,95421.06
2023-03-27T04:45:54.803Z,95418.63
2023-03-27T04:47:58.140Z,95438.16
2023-03-27T04:50:00.978Z,95444.47
2023-03-27T04:52:04.141Z,95460.56
2023-03-27T04:54:09.089Z,95452.63
2023-03-27T04:56:17.610Z,95431.66
2023-03-27T04:58:20.646Z,95463.41
2023-03-27T05:00:23.914Z,95480.50
2023-03-27T05:02:44.904Z,95482.09
2023-03-27T05:04:58.408Z,95500.81
2023-03-27T05:07:07.269Z,95460.91
2023-03-27T05:09:11.364Z,95498.81
2023-03-27T05:11:14.082Z,95501.22
2023-03-27T05:13:18.998Z,95509.78
2023-03-27T05:15:22.661Z,95510.97
2023-03-27T05:17:26.194Z,95519.34
2023-03-27T05:19:30.308Z,95521.78
2023-03-27T05:21:36.213Z,95525.66
2023-03-27T05:23:39.280Z,95522.75
2023-03-27T05:25:45.321Z,95546.13
2023-03-27T05:28:10.554Z,95543.13
2023-03-27T05:30:15.278Z,95559.41
2023-03-27T05:32:18.218Z,95560.75
2023-03-27T05:34:27.016Z,95565.84
2023-03-27T05:36:31.376Z,95570.69
2023-03-27T05:38:34.532Z,95569.94
2023-03-27T05:40:52.146Z,95582.72
2023-03-27T05:42:56.320Z,95563.72
2023-03-27T05:45:03.013Z,95587.59
2023-03-27T05:47:05.886Z,95586.91
2023-03-27T05:49:08.802Z,95603.84
2023-03-27T05:51:11.620Z,95597.13
2023-03-27T05:53:15.617Z,95612.56
2023-03-27T05:55:39.889Z,95617.53
2023-03-27T05:57:44.043Z,95603.69
2023-03-27T05:59:48.850Z,95584.03
2023-03-27T06:01:55.554Z,95634.31
2023-03-27T06:04:04.357Z,95642.28
2023-03-27T06:06:26.421Z,95658.22
2023-03-27T06:08:33.627Z,95665.06
2023-03-27T06:10:36.587Z,95682.63
2023-03-27T06:13:01.451Z,95679.13
2023-03-27T06:15:11.998Z,95703.31
2023-03-27T06:17:23.338Z,95686.81
2023-03-27T06:19:34.485Z,95684.28
2023-03-27T06:21:39.897Z,95697.25
2023-03-27T06:23:43.851Z,95698.69
2023-03-27T06:25:48.519Z,95707.97
2023-03-27T06:27:52.124Z,95710.50
2023-03-27T06:29:56.735Z,95710.00
2023-03-27T06:32:01.604Z,95722.69
2023-03-27T06:34:09.678Z,95725.72
2023-03-27T06:36:32.386Z,95730.53
2023-03-27T06:38:37.165Z,95724.91
2023-03-27T06:40:40.821Z,95730.59
2023-03-27T06:42:50.281Z,95738.63
2023-03-27T06:45:01.186Z,95738.00
2023-03-27T06:47:22.534Z,95740.78
2023-03-27T06:49:48.728Z,95761.88
2023-03-27T06:51:57.130Z,95764.13
2023-03-27T06:54:00.337Z,95760.19
2023-03-27T06:56:04.127Z,95760.28
2023-03-27T06:58:25.599Z,95760.25
2023-03-27T07:00:32.176Z,95758.81
2023-03-27T07:03:02.826Z,95703.31
2023-03-27T07:05:31.617Z,95753.59
2023-03-27T07:07:34.686Z,95767.41
2023-03-27T07:09:40.053Z,95772.41
2023-03-27T07:11:44.344Z,95779.44
2023-03-27T07:13:47.107Z,95632.59
2023-03-27T07:15:59.061Z,95793.81
2023-03-27T07:18:06.283Z,95796.97
2023-03-27T07:20:13.375Z,95789.34
2023-03-27T07:22:16.308Z,95799.81
2023-03-27T07:24:19.221Z,95800.91
2023-03-27T07:26:23.443Z,95801.50
2023-03-27T07:28:38.594Z,95814.06
2023-03-27T07:30:46.179Z,95731.03
2023-03-27T07:32:51.409Z,95812.19
2023-03-27T07:34:54.281Z,95829.44
2023-03-27T07:36:59.888Z,95833.50
2023-03-27T07:39:02.925Z,95833.63
2023-03-27T07:41:07.213Z,95804.56
2023-03-27T07:43:28.560Z,95848.97
2023-03-27T07:45:31.959Z,95855.47
2023-03-27T07:47:34.889Z,95848.09
2023-03-27T07:49:40.471Z,95849.31
2023-03-27T07:51:53.715Z,95858.19
2023-03-27T07:53:58.724Z,95856.28
2023-03-27T07:56:08.758Z,95871.88
2023-03-27T07:58:12.008Z,95877.44
2023-03-27T08:00:17.856Z,95874.41
2023-03-27T08:02:27.798Z,95886.22
2023-03-27T08:04:31.152Z,95785.69
2023-03-27T08:06:43.736Z,95900.44
2023-03-27T08:08:53.127Z,95896.72
2023-03-27T08:10:56.956Z,95879.59
2023-03-27T08:13:01.793Z,95904.72
2023-03-27T08:15:07.209Z,95911.53
2023-03-27T08:17:15.906Z,95904.06
2023-03-27T08:19:21.210Z,95914.00
2023-03-27T08:21:28.653Z,95907.44
2023-03-27T08:23:33.826Z,95874.81
2023-03-27T08:26:00.418Z,95920.88
2023-03-27T08:28:07.218Z,95924.09
2023-03-27T08:30:13.012Z,95927.72
2023-03-27T08:32:16.550Z,95922.94
2023-03-27T08:34:20.355Z,95931.59
2023-03-27T08:36:27.182Z,95949.34
2023-03-27T08:38:33.503Z,95956.50
2023-03-27T08:40:37.772Z,95944.25
2023-03-27T08:43:05.055Z,95946.44
2023-03-27T08:45:15.543Z,95955.47
2023-03-27T08:47:32.416Z,95956.91
2023-03-27T08:49:48.259Z,95952.84
2023-03-27T08:52:02.357Z,95918.31
2023-03-27T08:54:10.342Z,95967.34
2023-03-27T08:56:16.604Z,95974.28
2023-03-27T08:58:22.708Z,95961.44
2023-03-27T09:00:37.617Z,95954.47
2023-03-27T09:03:06.596Z,95962.97
2023-03-27T09:05:17.929Z,95963.34
2023-03-27T09:07:29.484Z,95976.66
2023-03-27T09:09:55.830Z,95976.72
2023-03-27T09:12:09.737Z,95973.16
2023-03-27T09:14:31.108Z,95981.72
2023-03-27T09:16:38.611Z,95986.03
2023-03-27T09:18:48.894Z,95977.63
2023-03-27T09:21:00.178Z,95992.59
2023-03-27T09:23:10.956Z,95941.34
2023-03-27T09:25:47.120Z,95986.59
2023-03-27T09:27:58.993Z,95996.34
2023-03-27T09:30:25.377Z,95994.84
2023-03-27T09:32:33.644Z,95985.06
2023-03-27T09:34:37.082Z,95997.69
2023-03-27T09:36:40.058Z,95931.84
2023-03-27T09:38:50.511Z,95999.66
2023-03-27T09:41:02.419Z,96036.97
2023-03-27T09:43:16.293Z,96021.91
2023-03-27T09:45:20.661Z,96025.41
2023-03-27T09:47:37.563Z,96026.88
2023-03-27T09:49:46.345Z,96028.56
2023-03-27T09:51:56.641Z,96024.84
2023-03-27T09:54:29.732Z,96017.78
2023-03-27T09:56:39.272Z,96022.06
2023-03-27T09:58:45.353Z,96028.81
2023-03-27T10:00:48.468Z,95968.66
2023-03-27T10:03:00.700Z,96036.19
2023-03-27T10:05:12.006Z,95976.81
2023-03-27T10:07:24.770Z,96033.84
2023-03-27T10:10:08.204Z,96041.50
2023-03-27T10:12:25.966Z,96044.47
2023-03-27T10:14:29.944Z,96028.06
2023-03-27T10:16:40.792Z,96040.09
2023-03-27T10:18:47.295Z,96041.66
2023-03-27T10:20:56.267Z,96045.81
2023-03-27T10:23:02.342Z,96050.34
2023-03-27T10:25:17.431Z,96030.59
2023-03-27T10:27:33.320Z,96069.84
2023-03-27T10:30:02.853Z,95988.94
2023-03-27T10:32:08.156Z,96012.06
2023-03-27T10:34:33.449Z,96066.00
2023-03-27T10:36:55.479Z,96054.47
2023-03-27T10:39:03.817Z,96053.34
2023-03-27T10:41:28.044Z,96062.25
2023-03-27T10:43:37.507Z,96069.81
2023-03-27T10:45:46.781Z,96072.44
2023-03-27T10:47:54.351Z,96083.75
2023-03-27T10:50:04.940Z,95910.41
2023-03-27T10:52:22.879Z,96077.56
2023-03-27T10:54:47.481Z,96082.31
2023-03-27T10:56:58.109Z,96095.88
2023-03-27T10:59:08.561Z,96091.09
2023-03-27T11:01:18.006Z,96090.50
2023-03-27T11:03:31.156Z,96097.34
2023-03-27T11:05:42.724Z,96091.31
2023-03-27T11:07:57.879Z,96111.69
2023-03-27T11:10:07.078Z,96110.38
2023-03-27T11:12:14.469Z,96107.19
2023-03-27T11:14:36.090Z,96116.88
2023-03-27T11:16:49.776Z,96119.94
2023-03-27T11:19:29.444Z,96120.41
2023-03-27T11:22:06.889Z,96114.00
2023-03-27T11:24:19.062Z,96109.84
2023-03-27T11:26:31.456Z,96110.94
2023-03-27T11:28:42.797Z,96123.63
2023-03-27T11:30:52.113Z,96108.78
2023-03-27T11:33:06.817Z,96109.75
2023-03-27T11:35:15.117Z,96039.78
2023-03-27T11:37:25.608Z,96116.09
2023-03-27T11:39:36.972Z,96116.94
2023-03-27T11:41:40.841Z,96124.41
2023-03-27T11:43:44.932Z,96125.44
2023-03-27T11:46:45.536Z,96134.94
2023-03-27T11:49:01.977Z,96139.78
2023-03-27T11:51:14.008Z,96128.72
2023-03-27T11:53:30.225Z,96128.34
2023-03-27T11:55:49.437Z,96115.69
2023-03-27T11:58:04.200Z,96117.09
2023-03-27T12:00:25.458Z,96121.25
2023-03-27T12:02:55.778Z,96113.22
2023-03-27T12:05:04.319Z,96115.56
2023-03-27T12:07:36.030Z,96125.34
2023-03-27T12:09:58.152Z,96129.16
2023-03-27T12:12:39.843Z,96131.06
2023-03-27T12:15:03.316Z,96128.06
2023-03-27T12:17:21.765Z,96140.66
2023-03-27T12:19:56.018Z,96132.53
2023-03-27T12:24:34.152Z,96094.53
2023-03-27T12:27:23.365Z,96143.84
2023-03-27T12:29:51.882Z,96139.53
2023-03-27T12:32:08.705Z,96134.47
2023-03-27T12:34:27.263Z,96148.78
2023-03-27T12:36:38.545Z,96150.59
2023-03-27T12:38:43.142Z,96153.69
2023-03-27T12:40:50.629Z,96115.00
2023-03-27T12:42:55.660Z,96146.59
2023-03-27T12:45:13.253Z,96153.69
2023-03-27T12:47:22.660Z,96144.19
2023-03-27T12:49:47.609Z,96164.31
2023-03-27T12:52:07.221Z,96167.09
2023-03-27T12:55:09.293Z,96156.09
2023-03-27T12:57:30.848Z,96169.78
2023-03-27T12:59:39.510Z,96164.84
2023-03-27T13:02:39.011Z,96155.88
2023-03-27T13:05:24.056Z,96154.94
2023-03-27T13:07:38.877Z,96157.81
2023-03-27T13:10:00.141Z,96159.91
2023-03-27T13:12:21.536Z,96151.22
2023-03-27T13:15:03.997Z,96161.16
2023-03-27T13:17:29.124Z,96161.91
2023-03-27T13:19:53.594Z,96159.22
2023-03-27T13:22:21.395Z,96162.28
2023-03-27T13:24:37.908Z,96152.53
2023-03-27T13:26:54.940Z,96151.38
2023-03-27T13:29:01.518Z,96142.47
2023-03-27T13:31:07.707Z,96155.66
2023-03-27T13:33:43.625Z,96155.69
2023-03-27T13:36:12.092Z,96158.75
2023-03-27T13:38:15.499Z,96168.19
2023-03-27T13:40:36.722Z,96088.38
2023-03-27T13:42:51.847Z,96162.44
2023-03-27T13:45:06.064Z,96157.22
2023-03-27T13:47:59.219Z,96162.81
2023-03-27T13:50:19.896Z,96103.78
2023-03-27T13:52:43.014Z,96161.09
2023-03-27T13:55:16.628Z,96171.72
2023-03-27T13:57:50.968Z,96178.81
2023-03-27T14:00:23.221Z,96169.31
2023-03-27T14:02:56.862Z,96166.03
2023-03-27T14:05:18.898Z,96098.81
2023-03-27T14:07:53.813Z,96164.84
2023-03-27T14:10:11.197Z,96170.16
2023-03-27T14:12:23.888Z,96180.13
2023-03-27T14:15:21.920Z,96185.00
2023-03-27T14:17:56.611Z,96174.38
2023-03-27T14:20:21.823Z,96192.53
2023-03-27T14:22:30.626Z,96201.25
2023-03-27T14:24:39.408Z,96175.50
2023-03-27T14:26:55.786Z,96124.72
2023-03-27T14:29:01.681Z,96201.97
2023-03-27T14:31:18.932Z,96200.72
2023-03-27T14:33:39.173Z,96208.63
2023-03-27T14:35:45.491Z,96211.84
2023-03-27T14:37:55.766Z,96185.47
2023-03-27T14:40:22.827Z,96215.69
2023-03-27T14:42:32.015Z,96222.53
2023-03-27T14:44:36.200Z,96192.63
2023-03-27T14:46:50.056Z,96214.09
2023-03-27T14:48:55.867Z,96216.81
2023-03-27T14:51:02.777Z,96212.94
2023-03-27T14:53:12.177Z,96213.13
2023-03-27T14:55:39.757Z,96223.09
2023-03-27T14:58:11.515Z,96175.31
2023-03-27T15:00:18.560Z,96215.34
2023-03-27T15:02:28.948Z,96241.38
2023-03-27T15:04:38.134Z,96210.66
2023-03-27T15:06:44.185Z,96235.78
2023-03-27T15:08:59.569Z,96223.03
2023-03-27T15:11:27.213Z,96227.72
2023-03-27T15:13:40.365Z,96219.72
2023-03-27T15:15:50.183Z,96239.16
2023-03-27T15:17:59.968Z,96212.38
2023-03-27T15:20:10.204Z,96234.16
2023-03-27T15:22:20.897Z,96234.56
2023-03-27T15:24:31.946Z,96243.13
2023-03-27T15:26:36.201Z,96249.78
2023-03-27T15:28:43.311Z,96246.28
2023-03-27T15:30:51.262Z,96092.91
2023-03-27T15:33:01.835Z,96233.47
2023-03-27T15:35:05.343Z,96232.78
2023-03-27T15:37:13.737Z,96233.63
2023-03-27T15:39:21.762Z,96218.06
2023-03-27T15:41:42.833Z,96244.91
2023-03-27T15:43:45.907Z,96255.44
2023-03-27T15:46:15.820Z,96259.06
2023-03-27T15:48:23.203Z,96256.22
2023-03-27T15:50:27.972Z,96251.34
2023-03-27T15:52:32.274Z,96251.34
2023-03-27T15:54:36.721Z,96237.72
2023-03-27T15:56:42.863Z,96254.19
2023-03-27T15:58:48.820Z,96149.91
2023-03-27T16:00:54.732Z,96220.44
2023-03-27T16:02:57.750Z,96263.16
2023-03-27T16:05:02.162Z,96262.13
2023-03-27T16:07:10.835Z,96257.53
2023-03-27T16:09:23.317Z,96210.81
2023-03-27T16:11:41.461Z,96134.22
2023-03-27T16:13:56.121Z,96058.25
2023-03-27T16:16:01.069Z,96252.34
2023-03-27T16:18:14.306Z,96239.03
2023-03-27T16:20:37.270Z,96259.88
2023-03-27T16:22:40.956Z,96263.13
2023-03-27T16:24:43.693Z,96272.66
2023-03-27T16:26:46.456Z,96287.22
2023-03-27T16:28:49.301Z,96276.78
2023-03-27T16:30:52.215Z,96281.13
2023-03-27T16:32:55.738Z,96285.84
2023-03-27T16:34:58.467Z,96281.69
2023-03-27T16:37:02.872Z,96284.38
2023-03-27T16:39:06.963Z,96302.16
2023-03-27T16:41:14.249Z,96296.03
2023-03-27T16:43:17.003Z,96259.78
2023-03-27T16:45:19.751Z,96300.31
2023-03-27T16:47:23.469Z,96284.56
2023-03-27T16:49:26.339Z,96294.00
2023-03-27T16:51:29.840Z,96284.56
2023-03-27T16:53:33.957Z,96290.09
2023-03-27T16:55:36.754Z,96249.13
2023-03-27T16:57:39.620Z,96286.97
2023-03-27T16:59:42.386Z,96291.69
2023-03-27T17:01:45.177Z,96171.84
2023-03-27T17:03:47.923Z,96173.22
2023-03-27T17:05:50.691Z,96297.19
2023-03-27T17:07:53.503Z,96310.44
2023-03-27T17:09:57.637Z,96276.78
2023-03-27T17:12:00.533Z,96134.41
2023-03-27T17:14:03.864Z,96314.41
2023-03-27T17:16:08.173Z,96249.88
2023-03-27T17:18:10.930Z,96314.63
2023-03-27T17:20:14.031Z,96218.97
2023-03-27T17:22:16.755Z,96314.66
2023-03-27T17:24:19.905Z,96322.59
2023-03-27T17:26:26.139Z,96341.00
2023-03-27T17:28:29.226Z,96271.50
2023-03-27T17:30:41.093Z,96324.22
2023-03-27T17:32:47.549Z,96337.03
2023-03-27T17:34:52.069Z,96169.31
2023-03-27T17:36:54.936Z,96342.84
2023-03-27T17:38:57.907Z,96333.44
2023-03-27T17:41:00.817Z,96298.34
2023-03-27T17:43:04.884Z,96358.38
2023-03-27T17:45:08.277Z,96231.72
2023-03-27T17:47:11.550Z,96354.91
2023-03-27T17:49:14.423Z,96358.41
2023-03-27T17:51:17.253Z,96270.47
2023-03-27T17:53:20.078Z,96363.09
2023-03-27T17:55:22.911Z,96361.78
2023-03-27T17:57:25.660Z,96373.38
2023-03-27T17:59:30.966Z,96378.56
2023-03-27T18:01:33.779Z,96374.66
2023-03-27T18:03:37.573Z,96375.47
2023-03-27T18:05:42.421Z,96376.63
2023-03-27T18:07:45.445Z,96381.22
2023-03-27T18:09:48.786Z,96299.81
2023-03-27T18:11:51.727Z,96390.06
2023-03-27T18:13:54.629Z,96387.00
2023-03-27T18:15:58.956Z,96390.81
2023-03-27T18:18:02.898Z,96399.97
2023-03-27T18:20:10.120Z,96311.31
2023-03-27T18:22:13.059Z,96399.16
2023-03-27T18:24:16.063Z,96312.31
2023-03-27T18:26:18.807Z,96405.75
2023-03-27T18:28:22.123Z,96414.19
2023-03-27T18:30:24.957Z,96308.53
2023-03-27T18:32:29.096Z,96413.69
2023-03-27T18:34:32.103Z,96412.53
2023-03-27T18:36:34.830Z,96419.78
2023-03-27T18:38:38.950Z,96351.84
2023-03-27T18:40:41.703Z,96421.69
2023-03-27T18:42:44.916Z,96425.28
2023-03-27T18:44:48.404Z,96422.78
2023-03-27T18:46:51.129Z,96432.44
2023-03-27T18:48:55.827Z,96436.00
2023-03-27T18:51:00.968Z,96445.59
2023-03-27T18:53:03.785Z,96432.44
2023-03-27T18:55:08.196Z,96434.69
2023-03-27T18:57:11.778Z,96438.94
2023-03-27T18:59:15.564Z,96441.59
2023-03-27T19:01:18.577Z,96446.22
2023-03-27T19:03:23.491Z,96405.78
2023-03-27T19:05:27.673Z,96452.75
2023-03-27T19:07:30.784Z,96454.16
2023-03-27T19:09:40.899Z,96452.59
2023-03-27T19:11:44.767Z,96456.06
2023-03-27T19:14:06.656Z,96354.94
2023-03-27T19:16:14.529Z,96436.97
2023-03-27T19:18:47.782Z,96433.41
2023-03-27T19:21:10.579Z,96439.50
2023-03-27T19:23:29.780Z,96391.88
2023-03-27T19:25:33.888Z,96235.00
2023-03-27T19:27:39.125Z,96434.88
2023-03-27T19:29:42.028Z,96442.38
2023-03-27T19:31:44.886Z,96438.72
2023-03-27T19:33:47.584Z,96441.19
2023-03-27T19:35:53.506Z,96446.47
2023-03-27T19:37:57.601Z,96437.16
2023-03-27T19:40:00.598Z,96452.16
2023-03-27T19:42:03.408Z,96404.44
2023-03-27T19:44:06.588Z,96447.47
2023-03-27T19:46:16.474Z,96374.56
2023-03-27T19:48:21.282Z,96441.28
2023-03-27T19:50:23.990Z,96456.97
2023-03-27T19:52:29.911Z,96452.59
2023-03-27T19:54:34.032Z,96453.63
2023-03-27T19:56:36.886Z,96451.88
2023-03-27T19:58:39.763Z,96460.44
2023-03-27T20:00:44.368Z,96465.22
2023-03-27T20:02:47.157Z,96449.78
2023-03-27T20:04:49.952Z,96472.16
2023-03-27T20:06:55.057Z,96462.47
2023-03-27T20:09:00.252Z,96471.63
2023-03-27T20:11:04.483Z,96465.22
2023-03-27T20:13:07.242Z,96403.53
2023-03-27T20:15:12.726Z,96477.00
2023-03-27T20:17:27.981Z,96472.53
2023-03-27T20:19:31.275Z,96471.69
2023-03-27T20:21:39.450Z,96478.69
2023-03-27T20:23:45.709Z,96339.00
2023-03-27T20:25:57.249Z,96473.41
2023-03-27T20:28:01.871Z,96474.88
2023-03-27T20:30:06.527Z,96488.31
2023-03-27T20:32:09.249Z,96485.41
2023-03-27T20:34:12.241Z,96493.06
2023-03-27T20:36:16.556Z,96488.84
2023-03-27T20:38:22.831Z,96497.88
2023-03-27T20:40:26.514Z,96499.16
2023-03-27T20:42:29.311Z,96487.56
2023-03-27T20:44:35.997Z,96490.44
2023-03-27T20:46:39.108Z,96349.94
2023-03-27T20:48:44.869Z,96492.34
2023-03-27T20:50:58.151Z,96494.28
2023-03-27T20:53:00.845Z,96493.72
2023-03-27T20:55:03.672Z,96483.41
2023-03-27T20:57:06.881Z,96502.13
2023-03-27T20:59:09.701Z,96494.00
2023-03-27T21:01:14.077Z,96511.97
2023-03-27T21:03:16.900Z,96330.88
2023-03-27T21:05:20.856Z,96521.13
2023-03-27T21:07:23.577Z,96484.47
2023-03-27T21:09:27.713Z,96527.22
2023-03-27T21:11:30.400Z,96537.38
2023-03-27T21:13:35.921Z,96541.00
2023-03-27T21:15:38.632Z,96450.72
2023-03-27T21:17:42.803Z,96445.22
2023-03-27T21:19:45.575Z,96549.03
2023-03-27T21:21:48.315Z,96545.41
2023-03-27T21:23:53.791Z,96445.63
2023-03-27T21:25:56.719Z,96548.31
2023-03-27T21:27:59.550Z,96528.16
2023-03-27T21:30:02.323Z,96551.50
2023-03-27T21:32:05.105Z,96541.34
2023-03-27T21:34:09.609Z,96541.72
2023-03-27T21:36:13.296Z,96546.28
2023-03-27T21:38:17.623Z,96543.25
2023-03-27T21:40:20.769Z,96519.13
2023-03-27T21:42:23.502Z,96464.03
2023-03-27T21:44:26.243Z,96551.56
2023-03-27T21:46:29.112Z,96445.94
2023-03-27T21:48:31.905Z,96518.13
2023-03-27T21:50:36.081Z,96565.84
2023-03-27T21:52:38.886Z,96561.00
2023-03-27T21:54:49.901Z,96561.00
2023-03-27T21:56:59.337Z,96564.56
2023-03-27T21:59:02.138Z,96519.13
2023-03-27T22:01:05.636Z,96573.34
2023-03-27T22:03:08.347Z,96567.75
2023-03-27T22:05:11.203Z,96567.13
2023-03-27T22:07:15.513Z,96566.75
2023-03-27T22:09:18.252Z,96556.06
2023-03-27T22:11:21.021Z,96557.84
2023-03-27T22:13:23.716Z,96572.97
2023-03-27T22:15:26.580Z,96565.50
2023-03-27T22:17:29.323Z,96454.50
2023-03-27T22:19:32.165Z,96565.59
2023-03-27T22:21:35.037Z,96497.00
2023-03-27T22:23:39.819Z,96525.34
2023-03-27T22:25:42.643Z,96575.88
2023-03-27T22:27:46.407Z,96530.69
2023-03-27T22:29:49.123Z,96556.56
2023-03-27T22:31:51.886Z,96579.50
2023-03-27T22:33:54.876Z,96619.41
2023-03-27T22:35:57.766Z,96582.47
2023-03-27T22:38:00.864Z,96595.81
2023-03-27T22:40:05.499Z,96596.63
2023-03-27T22:42:08.182Z,96584.81
2023-03-27T22:44:11.063Z,96598.94
2023-03-27T22:46:15.805Z,96530.16
2023-03-27T22:48:18.580Z,96603.47
2023-03-27T22:50:21.258Z,96601.47
2023-03-27T22:52:23.980Z,96613.00
2023-03-27T22:54:26.804Z,96608.75
2023-03-27T22:56:31.110Z,96608.81
2023-03-27T22:58:34.155Z,96619.38
2023-03-27T23:00:36.921Z,96617.25
2023-03-27T23:02:39.681Z,96619.81
2023-03-27T23:04:42.405Z,96613.25
2023-03-27T23:06:45.315Z,96626.88
2023-03-27T23:08:49.301Z,96627.66
2023-03-27T23:10:56.343Z,96566.16
2023-03-27T23:13:00.417Z,96583.78
2023-03-27T23:15:03.114Z,96622.16
2023-03-27T23:17:06.064Z,96495.41
2023-03-27T23:19:08.817Z,96636.06
2023-03-27T23:21:13.729Z,96622.19
2023-03-27T23:23:16.464Z,96637.06
2023-03-27T23:25:19.355Z,96638.34
2023-03-27T23:27:22.211Z,96635.31
2023-03-27T23:29:26.292Z,96640.97
2023-03-27T23:31:29.009Z,96638.34
2023-03-27T23:33:36.104Z,96654.22
2023-03-27T23:35:39.277Z,96584.25
2023-03-27T23:37:42.066Z,96634.38
2023-03-27T23:39:44.824Z,96642.63
2023-03-27T23:41:47.544Z,96652.47
2023-03-27T23:43:50.880Z,96650.13
2023-03-27T23:45:56.140Z,96639.38
2023-03-27T23:47:58.992Z,96612.25
2023-03-27T23:50:01.991Z,96375.03
2023-03-27T23:52:04.900Z,96647.69
2023-03-27T23:54:07.618Z,96654.13
2023-03-27T23:56:11.110Z,96666.00
2023-03-27T23:58:13.914Z,96651.91
